Etusivu
METAR-TAF:

METAR-TAF

Lentoasemat :

Rygge, Norja

Leveyspiiri: 59-23N, Pituuspiiri: 010-47E, korkeus merenpinnasta: 5 m

Tämänhetkinen sää

Tämä raportti tehtiin 39 minuuttia sitten, kello 23.20 UTC
Tuuli 5 kn koillisesta, vaihdellen pohjoisen ja idän välillä
Lämpötila -2°C
Kosteus 80%
Ilmanpaine 1028 hPa
Näkyvyys 10 km tai enemmän

METAR: ENRY 192320Z AUTO 05005KT 010V090 9999NDV OVC013/// M02/M05 Q1028

Aika: 00:59 (23:59 UTC)

Sääennuste

Ennuste voimassa 19. päivästä klo 18 UTC - 20. päivään klo 18 UTC
Tuuli 8 kn koillisesta
Näkyvyys 10 km tai enemmän
Muutamia pilviä 1300 ft:n korkeudessa
Hajonneita pilviä 2000 ft:n korkeudessa
Ajoittain
19. päivästä klo 18 UTC - 20. päivään klo 08 UTC
Hajonneita pilviä 1300 ft:n korkeudessa
Todennäköisyys 30%
20. päivästä klo 00 UTC - 20. päivään klo 08 UTC
Hajonneita pilviä 700 ft:n korkeudessa

TAF: ENRY 1918/2018 04008KT 9999 FEW013 BKN020 TEMPO 1918/2008 BKN013 PROB30 2000/2008 BKN007

Säähavainnot ja -ennusteet yli 4000 lentoasemalta (METAR- ja TAF-raportit).

Käytössä olevat sääasemat on merkitty karttaan keltaisilla ja punaisilla pisteillä.

Aseta hiiri pisteen päälle nähdäksesi sääaseman nimen.

Klikkaa sitten nähdäksesi säähavainnot ja -ennusteet.

Kartan vaihtaminen: klikkaa mustalla rastilla varustettuja vihreitä pisteitä, niin voit zoomata sisään; viivalla varustettua vihreää pistettä, niin voit zoomata ulos tai vihreitä nuolia, niin pääset viereisille kartoille.


METAR-TAF: